sensor_id;sensor_type;location;lat;lon;timestamp;P1;durP1;ratioP1;P2;durP2;ratioP2
22435;SDS011;11385;50.822;4.324;2023-07-09T00:02:16;12.70;;;7.50;;
22435;SDS011;11385;50.822;4.324;2023-07-09T00:04:44;10.70;;;7.20;;
22435;SDS011;11385;50.822;4.324;2023-07-09T00:07:21;10.53;;;6.90;;
22435;SDS011;11385;50.822;4.324;2023-07-09T00:09:51;12.35;;;7.53;;
22435;SDS011;11385;50.822;4.324;2023-07-09T00:12:19;12.10;;;7.92;;
22435;SDS011;11385;50.822;4.324;2023-07-09T00:14:47;13.28;;;8.20;;
22435;SDS011;11385;50.822;4.324;2023-07-09T00:17:21;13.13;;;8.08;;
22435;SDS011;11385;50.822;4.324;2023-07-09T00:19:54;12.70;;;7.53;;
22435;SDS011;11385;50.822;4.324;2023-07-09T00:22:21;12.50;;;7.90;;
22435;SDS011;11385;50.822;4.324;2023-07-09T00:24:49;12.28;;;7.80;;
22435;SDS011;11385;50.822;4.324;2023-07-09T00:27:17;11.88;;;7.50;;
22435;SDS011;11385;50.822;4.324;2023-07-09T00:29:45;14.95;;;8.50;;
22435;SDS011;11385;50.822;4.324;2023-07-09T00:32:14;10.95;;;7.40;;
22435;SDS011;11385;50.822;4.324;2023-07-09T00:34:42;12.50;;;7.37;;
22435;SDS011;11385;50.822;4.324;2023-07-09T00:37:12;14.78;;;8.00;;
22435;SDS011;11385;50.822;4.324;2023-07-09T00:39:39;11.83;;;7.80;;
22435;SDS011;11385;50.822;4.324;2023-07-09T00:42:13;13.85;;;7.58;;
22435;SDS011;11385;50.822;4.324;2023-07-09T00:44:44;10.25;;;7.25;;
22435;SDS011;11385;50.822;4.324;2023-07-09T00:47:15;12.40;;;7.58;;
22435;SDS011;11385;50.822;4.324;2023-07-09T00:49:48;13.00;;;6.90;;
22435;SDS011;11385;50.822;4.324;2023-07-09T00:52:21;14.13;;;7.67;;
22435;SDS011;11385;50.822;4.324;2023-07-09T00:54:49;10.90;;;7.25;;
22435;SDS011;11385;50.822;4.324;2023-07-09T00:57:19;11.18;;;7.00;;
22435;SDS011;11385;50.822;4.324;2023-07-09T00:59:49;12.55;;;7.20;;
22435;SDS011;11385;50.822;4.324;2023-07-09T01:02:18;11.55;;;7.22;;
22435;SDS011;11385;50.822;4.324;2023-07-09T01:04:48;11.97;;;7.22;;
22435;SDS011;11385;50.822;4.324;2023-07-09T01:07:17;11.28;;;6.85;;
22435;SDS011;11385;50.822;4.324;2023-07-09T01:09:45;11.08;;;7.10;;
22435;SDS011;11385;50.822;4.324;2023-07-09T01:12:12;11.20;;;7.37;;
22435;SDS011;11385;50.822;4.324;2023-07-09T01:14:41;12.23;;;7.05;;
22435;SDS011;11385;50.822;4.324;2023-07-09T01:17:09;14.45;;;7.15;;
22435;SDS011;11385;50.822;4.324;2023-07-09T01:19:39;12.05;;;6.90;;
22435;SDS011;11385;50.822;4.324;2023-07-09T01:22:13;11.48;;;6.92;;
22435;SDS011;11385;50.822;4.324;2023-07-09T01:27:35;11.05;;;6.85;;
22435;SDS011;11385;50.822;4.324;2023-07-09T01:30:06;10.65;;;6.58;;
22435;SDS011;11385;50.822;4.324;2023-07-09T01:32:40;10.68;;;7.33;;
22435;SDS011;11385;50.822;4.324;2023-07-09T01:35:09;10.10;;;6.67;;
22435;SDS011;11385;50.822;4.324;2023-07-09T01:37:37;12.70;;;7.28;;
22435;SDS011;11385;50.822;4.324;2023-07-09T01:40:04;10.03;;;6.80;;
22435;SDS011;11385;50.822;4.324;2023-07-09T01:42:35;10.00;;;6.53;;
22435;SDS011;11385;50.822;4.324;2023-07-09T01:45:04;13.53;;;7.05;;
22435;SDS011;11385;50.822;4.324;2023-07-09T01:47:32;12.28;;;7.37;;
22435;SDS011;11385;50.822;4.324;2023-07-09T01:50:00;12.93;;;7.08;;
22435;SDS011;11385;50.822;4.324;2023-07-09T01:52:28;11.93;;;6.83;;
22435;SDS011;11385;50.822;4.324;2023-07-09T01:54:57;13.53;;;6.70;;
22435;SDS011;11385;50.822;4.324;2023-07-09T01:57:26;15.30;;;8.75;;
22435;SDS011;11385;50.822;4.324;2023-07-09T01:59:55;16.97;;;10.70;;
22435;SDS011;11385;50.822;4.324;2023-07-09T02:02:22;19.12;;;11.88;;
22435;SDS011;11385;50.822;4.324;2023-07-09T02:04:51;12.05;;;7.30;;
22435;SDS011;11385;50.822;4.324;2023-07-09T02:07:21;14.00;;;7.92;;
22435;SDS011;11385;50.822;4.324;2023-07-09T02:09:49;9.18;;;5.78;;
22435;SDS011;11385;50.822;4.324;2023-07-09T02:12:16;10.40;;;6.72;;
22435;SDS011;11385;50.822;4.324;2023-07-09T02:14:44;11.08;;;6.05;;
22435;SDS011;11385;50.822;4.324;2023-07-09T02:17:12;9.45;;;4.58;;
22435;SDS011;11385;50.822;4.324;2023-07-09T02:19:40;8.08;;;4.47;;
22435;SDS011;11385;50.822;4.324;2023-07-09T02:22:07;8.75;;;4.40;;
22435;SDS011;11385;50.822;4.324;2023-07-09T02:24:34;10.75;;;5.67;;
22435;SDS011;11385;50.822;4.324;2023-07-09T02:27:02;7.42;;;4.80;;
22435;SDS011;11385;50.822;4.324;2023-07-09T02:29:31;11.53;;;4.65;;
22435;SDS011;11385;50.822;4.324;2023-07-09T02:31:59;8.55;;;4.58;;
22435;SDS011;11385;50.822;4.324;2023-07-09T02:34:27;7.97;;;4.70;;
22435;SDS011;11385;50.822;4.324;2023-07-09T02:36:56;6.90;;;4.50;;
22435;SDS011;11385;50.822;4.324;2023-07-09T02:39:26;7.75;;;4.17;;
22435;SDS011;11385;50.822;4.324;2023-07-09T02:41:53;9.53;;;4.08;;
22435;SDS011;11385;50.822;4.324;2023-07-09T02:44:20;8.20;;;4.20;;
22435;SDS011;11385;50.822;4.324;2023-07-09T02:46:47;9.78;;;4.05;;
22435;SDS011;11385;50.822;4.324;2023-07-09T02:49:14;9.58;;;4.33;;
22435;SDS011;11385;50.822;4.324;2023-07-09T02:51:41;12.93;;;4.20;;
22435;SDS011;11385;50.822;4.324;2023-07-09T02:54:08;7.35;;;3.95;;
22435;SDS011;11385;50.822;4.324;2023-07-09T02:56:35;9.05;;;4.60;;
22435;SDS011;11385;50.822;4.324;2023-07-09T02:59:02;9.90;;;4.72;;
22435;SDS011;11385;50.822;4.324;2023-07-09T03:01:29;10.78;;;5.85;;
22435;SDS011;11385;50.822;4.324;2023-07-09T03:03:58;10.32;;;5.28;;
22435;SDS011;11385;50.822;4.324;2023-07-09T03:06:28;9.28;;;5.70;;
22435;SDS011;11385;50.822;4.324;2023-07-09T03:08:58;8.50;;;5.35;;
22435;SDS011;11385;50.822;4.324;2023-07-09T03:11:27;10.90;;;5.00;;
22435;SDS011;11385;50.822;4.324;2023-07-09T03:13:56;13.45;;;5.25;;
22435;SDS011;11385;50.822;4.324;2023-07-09T03:16:25;10.72;;;5.12;;
22435;SDS011;11385;50.822;4.324;2023-07-09T03:18:54;9.03;;;5.37;;
22435;SDS011;11385;50.822;4.324;2023-07-09T03:21:21;10.72;;;5.10;;
22435;SDS011;11385;50.822;4.324;2023-07-09T03:23:48;10.40;;;5.17;;
22435;SDS011;11385;50.822;4.324;2023-07-09T03:26:15;7.95;;;5.30;;
22435;SDS011;11385;50.822;4.324;2023-07-09T03:28:42;9.95;;;5.00;;
22435;SDS011;11385;50.822;4.324;2023-07-09T03:31:09;8.68;;;5.20;;
22435;SDS011;11385;50.822;4.324;2023-07-09T03:33:35;9.98;;;5.72;;
22435;SDS011;11385;50.822;4.324;2023-07-09T03:36:03;9.48;;;4.83;;
22435;SDS011;11385;50.822;4.324;2023-07-09T03:38:31;8.85;;;5.45;;
22435;SDS011;11385;50.822;4.324;2023-07-09T03:40:59;9.78;;;5.47;;
22435;SDS011;11385;50.822;4.324;2023-07-09T03:43:25;10.20;;;5.12;;
22435;SDS011;11385;50.822;4.324;2023-07-09T03:45:52;10.40;;;5.50;;
22435;SDS011;11385;50.822;4.324;2023-07-09T03:48:19;8.78;;;5.47;;
22435;SDS011;11385;50.822;4.324;2023-07-09T03:50:46;12.88;;;5.62;;
22435;SDS011;11385;50.822;4.324;2023-07-09T03:53:14;9.88;;;5.58;;
22435;SDS011;11385;50.822;4.324;2023-07-09T03:55:42;15.68;;;5.67;;
22435;SDS011;11385;50.822;4.324;2023-07-09T03:58:11;12.47;;;6.45;;
22435;SDS011;11385;50.822;4.324;2023-07-09T04:00:38;10.68;;;6.22;;
22435;SDS011;11385;50.822;4.324;2023-07-09T04:03:06;10.70;;;6.47;;
22435;SDS011;11385;50.822;4.324;2023-07-09T04:05:34;12.07;;;6.25;;
22435;SDS011;11385;50.822;4.324;2023-07-09T04:08:01;11.57;;;6.25;;
22435;SDS011;11385;50.822;4.324;2023-07-09T04:10:28;10.15;;;5.92;;
22435;SDS011;11385;50.822;4.324;2023-07-09T04:12:55;10.63;;;5.97;;
22435;SDS011;11385;50.822;4.324;2023-07-09T04:15:22;10.00;;;5.70;;
22435;SDS011;11385;50.822;4.324;2023-07-09T04:17:48;11.60;;;5.85;;
22435;SDS011;11385;50.822;4.324;2023-07-09T04:20:17;11.83;;;6.33;;
22435;SDS011;11385;50.822;4.324;2023-07-09T04:22:44;10.38;;;6.15;;
22435;SDS011;11385;50.822;4.324;2023-07-09T04:25:11;9.43;;;5.97;;
22435;SDS011;11385;50.822;4.324;2023-07-09T04:27:38;13.18;;;6.92;;
22435;SDS011;11385;50.822;4.324;2023-07-09T04:35:34;12.15;;;6.20;;
22435;SDS011;11385;50.822;4.324;2023-07-09T04:38:00;9.78;;;5.45;;
22435;SDS011;11385;50.822;4.324;2023-07-09T04:40:27;12.70;;;6.22;;
22435;SDS011;11385;50.822;4.324;2023-07-09T04:42:54;15.10;;;6.37;;
22435;SDS011;11385;50.822;4.324;2023-07-09T04:45:20;12.25;;;6.12;;
22435;SDS011;11385;50.822;4.324;2023-07-09T04:47:47;12.20;;;6.30;;
22435;SDS011;11385;50.822;4.324;2023-07-09T04:50:13;11.35;;;6.58;;
22435;SDS011;11385;50.822;4.324;2023-07-09T04:52:40;12.63;;;6.03;;
22435;SDS011;11385;50.822;4.324;2023-07-09T04:55:07;10.45;;;5.62;;
22435;SDS011;11385;50.822;4.324;2023-07-09T04:57:34;9.60;;;6.35;;
22435;SDS011;11385;50.822;4.324;2023-07-09T05:00:01;11.38;;;6.12;;
22435;SDS011;11385;50.822;4.324;2023-07-09T05:02:30;11.90;;;6.05;;
22435;SDS011;11385;50.822;4.324;2023-07-09T05:04:57;10.93;;;6.00;;
22435;SDS011;11385;50.822;4.324;2023-07-09T05:07:24;12.75;;;6.55;;
22435;SDS011;11385;50.822;4.324;2023-07-09T05:09:51;10.93;;;6.00;;
22435;SDS011;11385;50.822;4.324;2023-07-09T05:12:18;8.63;;;5.60;;
22435;SDS011;11385;50.822;4.324;2023-07-09T05:14:46;10.18;;;5.85;;
22435;SDS011;11385;50.822;4.324;2023-07-09T05:17:13;10.32;;;5.78;;
22435;SDS011;11385;50.822;4.324;2023-07-09T05:19:40;8.90;;;5.87;;
22435;SDS011;11385;50.822;4.324;2023-07-09T05:22:06;9.50;;;5.47;;
22435;SDS011;11385;50.822;4.324;2023-07-09T05:24:33;15.95;;;6.80;;
22435;SDS011;11385;50.822;4.324;2023-07-09T05:27:00;11.35;;;5.80;;
22435;SDS011;11385;50.822;4.324;2023-07-09T05:29:26;10.40;;;5.55;;
22435;SDS011;11385;50.822;4.324;2023-07-09T05:31:53;14.65;;;6.20;;
22435;SDS011;11385;50.822;4.324;2023-07-09T05:34:20;9.90;;;6.30;;
22435;SDS011;11385;50.822;4.324;2023-07-09T05:36:47;11.05;;;6.65;;
22435;SDS011;11385;50.822;4.324;2023-07-09T05:39:13;12.13;;;6.67;;
22435;SDS011;11385;50.822;4.324;2023-07-09T05:41:41;10.50;;;6.17;;
22435;SDS011;11385;50.822;4.324;2023-07-09T05:44:08;14.73;;;6.45;;
22435;SDS011;11385;50.822;4.324;2023-07-09T05:46:35;13.98;;;6.45;;
22435;SDS011;11385;50.822;4.324;2023-07-09T05:49:03;11.00;;;5.97;;
22435;SDS011;11385;50.822;4.324;2023-07-09T05:51:31;12.33;;;6.37;;
22435;SDS011;11385;50.822;4.324;2023-07-09T05:53:58;12.53;;;6.25;;
22435;SDS011;11385;50.822;4.324;2023-07-09T05:56:25;12.85;;;6.75;;
22435;SDS011;11385;50.822;4.324;2023-07-09T05:58:52;10.45;;;6.22;;
22435;SDS011;11385;50.822;4.324;2023-07-09T06:01:19;12.70;;;6.08;;
22435;SDS011;11385;50.822;4.324;2023-07-09T06:03:46;12.85;;;6.30;;
22435;SDS011;11385;50.822;4.324;2023-07-09T06:06:13;12.68;;;6.58;;
22435;SDS011;11385;50.822;4.324;2023-07-09T06:08:40;12.20;;;6.50;;
22435;SDS011;11385;50.822;4.324;2023-07-09T06:11:06;9.10;;;6.50;;
22435;SDS011;11385;50.822;4.324;2023-07-09T06:13:33;14.93;;;7.03;;
22435;SDS011;11385;50.822;4.324;2023-07-09T06:16:00;12.18;;;7.12;;
22435;SDS011;11385;50.822;4.324;2023-07-09T06:18:27;13.65;;;7.50;;
22435;SDS011;11385;50.822;4.324;2023-07-09T06:20:56;12.65;;;6.95;;
22435;SDS011;11385;50.822;4.324;2023-07-09T06:23:25;16.52;;;7.85;;
22435;SDS011;11385;50.822;4.324;2023-07-09T06:25:52;12.45;;;7.83;;
22435;SDS011;11385;50.822;4.324;2023-07-09T06:28:20;13.25;;;7.17;;
22435;SDS011;11385;50.822;4.324;2023-07-09T06:30:49;18.10;;;8.23;;
22435;SDS011;11385;50.822;4.324;2023-07-09T06:33:17;15.55;;;8.10;;
22435;SDS011;11385;50.822;4.324;2023-07-09T06:35:49;11.57;;;7.33;;
22435;SDS011;11385;50.822;4.324;2023-07-09T06:38:18;14.75;;;9.18;;
22435;SDS011;11385;50.822;4.324;2023-07-09T06:40:45;16.02;;;9.18;;
22435;SDS011;11385;50.822;4.324;2023-07-09T06:43:12;14.60;;;9.23;;
22435;SDS011;11385;50.822;4.324;2023-07-09T06:45:47;15.03;;;9.65;;
22435;SDS011;11385;50.822;4.324;2023-07-09T06:48:15;16.85;;;10.03;;
22435;SDS011;11385;50.822;4.324;2023-07-09T06:50:42;17.67;;;12.30;;
22435;SDS011;11385;50.822;4.324;2023-07-09T06:53:08;19.10;;;13.15;;
22435;SDS011;11385;50.822;4.324;2023-07-09T06:55:35;24.25;;;15.55;;
22435;SDS011;11385;50.822;4.324;2023-07-09T06:58:01;24.65;;;16.90;;
22435;SDS011;11385;50.822;4.324;2023-07-09T07:00:28;20.77;;;16.17;;
22435;SDS011;11385;50.822;4.324;2023-07-09T07:02:55;25.27;;;17.57;;
22435;SDS011;11385;50.822;4.324;2023-07-09T07:05:21;26.10;;;20.62;;
22435;SDS011;11385;50.822;4.324;2023-07-09T07:07:48;36.70;;;22.48;;
22435;SDS011;11385;50.822;4.324;2023-07-09T07:10:15;31.05;;;23.85;;
22435;SDS011;11385;50.822;4.324;2023-07-09T07:12:43;34.20;;;24.92;;
22435;SDS011;11385;50.822;4.324;2023-07-09T07:15:12;32.38;;;24.40;;
22435;SDS011;11385;50.822;4.324;2023-07-09T07:17:40;35.73;;;28.12;;
22435;SDS011;11385;50.822;4.324;2023-07-09T07:20:07;35.75;;;28.42;;
22435;SDS011;11385;50.822;4.324;2023-07-09T07:22:34;35.35;;;29.32;;
22435;SDS011;11385;50.822;4.324;2023-07-09T07:25:01;40.67;;;29.55;;
22435;SDS011;11385;50.822;4.324;2023-07-09T07:27:28;36.17;;;30.43;;
22435;SDS011;11385;50.822;4.324;2023-07-09T07:29:55;36.25;;;30.80;;
22435;SDS011;11385;50.822;4.324;2023-07-09T07:32:21;36.20;;;31.17;;
22435;SDS011;11385;50.822;4.324;2023-07-09T07:34:48;36.03;;;29.80;;
22435;SDS011;11385;50.822;4.324;2023-07-09T07:37:15;48.25;;;33.50;;
22435;SDS011;11385;50.822;4.324;2023-07-09T07:39:45;41.25;;;32.55;;
22435;SDS011;11385;50.822;4.324;2023-07-09T07:42:11;42.30;;;32.78;;
22435;SDS011;11385;50.822;4.324;2023-07-09T07:44:38;36.25;;;30.15;;
22435;SDS011;11385;50.822;4.324;2023-07-09T07:47:05;35.60;;;30.02;;
22435;SDS011;11385;50.822;4.324;2023-07-09T07:49:32;39.78;;;28.62;;
22435;SDS011;11385;50.822;4.324;2023-07-09T07:51:59;39.00;;;29.77;;
22435;SDS011;11385;50.822;4.324;2023-07-09T07:54:28;41.70;;;28.73;;
22435;SDS011;11385;50.822;4.324;2023-07-09T07:56:55;39.40;;;28.85;;
22435;SDS011;11385;50.822;4.324;2023-07-09T07:59:21;35.48;;;30.70;;
22435;SDS011;11385;50.822;4.324;2023-07-09T08:01:49;37.48;;;31.73;;
22435;SDS011;11385;50.822;4.324;2023-07-09T08:04:16;38.58;;;30.45;;
22435;SDS011;11385;50.822;4.324;2023-07-09T08:06:43;41.02;;;30.48;;
22435;SDS011;11385;50.822;4.324;2023-07-09T08:09:09;39.30;;;30.35;;
22435;SDS011;11385;50.822;4.324;2023-07-09T08:11:36;39.83;;;29.75;;
22435;SDS011;11385;50.822;4.324;2023-07-09T08:14:02;38.00;;;30.32;;
22435;SDS011;11385;50.822;4.324;2023-07-09T08:16:29;37.98;;;28.00;;
22435;SDS011;11385;50.822;4.324;2023-07-09T08:18:56;34.75;;;27.60;;
22435;SDS011;11385;50.822;4.324;2023-07-09T08:21:22;37.55;;;29.70;;
22435;SDS011;11385;50.822;4.324;2023-07-09T08:23:49;35.95;;;26.95;;
22435;SDS011;11385;50.822;4.324;2023-07-09T08:26:15;41.48;;;26.60;;
22435;SDS011;11385;50.822;4.324;2023-07-09T08:28:42;33.70;;;26.95;;
22435;SDS011;11385;50.822;4.324;2023-07-09T08:31:11;33.60;;;25.92;;
22435;SDS011;11385;50.822;4.324;2023-07-09T08:33:37;31.90;;;25.37;;
22435;SDS011;11385;50.822;4.324;2023-07-09T08:36:05;32.63;;;23.50;;
22435;SDS011;11385;50.822;4.324;2023-07-09T08:38:32;33.45;;;23.00;;
22435;SDS011;11385;50.822;4.324;2023-07-09T08:41:02;32.33;;;23.12;;
22435;SDS011;11385;50.822;4.324;2023-07-09T08:43:51;31.73;;;23.60;;
22435;SDS011;11385;50.822;4.324;2023-07-09T08:49:18;33.60;;;21.68;;
22435;SDS011;11385;50.822;4.324;2023-07-09T08:51:47;27.62;;;20.82;;
22435;SDS011;11385;50.822;4.324;2023-07-09T08:54:22;29.20;;;21.00;;
22435;SDS011;11385;50.822;4.324;2023-07-09T08:56:52;26.70;;;21.07;;
22435;SDS011;11385;50.822;4.324;2023-07-09T08:59:20;31.00;;;21.02;;
22435;SDS011;11385;50.822;4.324;2023-07-09T09:01:50;26.75;;;21.62;;
22435;SDS011;11385;50.822;4.324;2023-07-09T09:04:20;30.95;;;22.80;;
22435;SDS011;11385;50.822;4.324;2023-07-09T09:06:53;28.05;;;22.10;;
22435;SDS011;11385;50.822;4.324;2023-07-09T09:09:26;30.27;;;21.95;;
22435;SDS011;11385;50.822;4.324;2023-07-09T09:12:01;30.65;;;21.97;;
22435;SDS011;11385;50.822;4.324;2023-07-09T09:14:56;26.23;;;20.17;;
22435;SDS011;11385;50.822;4.324;2023-07-09T09:17:23;25.43;;;18.95;;
22435;SDS011;11385;50.822;4.324;2023-07-09T09:19:55;26.10;;;21.35;;
22435;SDS011;11385;50.822;4.324;2023-07-09T09:22:27;27.30;;;21.10;;
22435;SDS011;11385;50.822;4.324;2023-07-09T09:24:58;25.97;;;19.20;;
22435;SDS011;11385;50.822;4.324;2023-07-09T09:27:33;25.17;;;19.65;;
22435;SDS011;11385;50.822;4.324;2023-07-09T09:30:00;27.27;;;18.12;;
22435;SDS011;11385;50.822;4.324;2023-07-09T09:32:27;24.20;;;18.85;;
22435;SDS011;11385;50.822;4.324;2023-07-09T09:34:56;24.10;;;18.10;;
22435;SDS011;11385;50.822;4.324;2023-07-09T09:37:26;23.45;;;18.27;;
22435;SDS011;11385;50.822;4.324;2023-07-09T09:39:54;24.63;;;19.10;;
22435;SDS011;11385;50.822;4.324;2023-07-09T09:42:22;26.75;;;19.90;;
22435;SDS011;11385;50.822;4.324;2023-07-09T09:44:53;28.15;;;18.75;;
22435;SDS011;11385;50.822;4.324;2023-07-09T09:47:20;25.90;;;18.35;;
22435;SDS011;11385;50.822;4.324;2023-07-09T09:49:49;23.73;;;18.67;;
22435;SDS011;11385;50.822;4.324;2023-07-09T09:52:17;26.62;;;19.52;;
22435;SDS011;11385;50.822;4.324;2023-07-09T09:54:54;23.87;;;19.32;;
22435;SDS011;11385;50.822;4.324;2023-07-09T09:57:24;27.45;;;19.82;;
22435;SDS011;11385;50.822;4.324;2023-07-09T09:59:53;28.83;;;22.60;;
22435;SDS011;11385;50.822;4.324;2023-07-09T10:02:21;29.72;;;22.07;;
22435;SDS011;11385;50.822;4.324;2023-07-09T10:04:51;28.57;;;21.77;;
22435;SDS011;11385;50.822;4.324;2023-07-09T10:07:21;29.10;;;21.20;;
22435;SDS011;11385;50.822;4.324;2023-07-09T10:09:52;27.20;;;20.85;;
22435;SDS011;11385;50.822;4.324;2023-07-09T10:12:31;25.45;;;19.40;;
22435;SDS011;11385;50.822;4.324;2023-07-09T10:14:59;23.73;;;17.10;;
22435;SDS011;11385;50.822;4.324;2023-07-09T10:17:39;23.12;;;17.48;;
22435;SDS011;11385;50.822;4.324;2023-07-09T10:20:18;24.02;;;17.77;;
22435;SDS011;11385;50.822;4.324;2023-07-09T10:22:50;22.07;;;16.55;;
22435;SDS011;11385;50.822;4.324;2023-07-09T10:25:35;23.10;;;17.02;;
22435;SDS011;11385;50.822;4.324;2023-07-09T10:28:21;20.20;;;16.32;;
22435;SDS011;11385;50.822;4.324;2023-07-09T10:31:07;17.20;;;13.95;;
22435;SDS011;11385;50.822;4.324;2023-07-09T10:34:45;18.73;;;13.08;;
22435;SDS011;11385;50.822;4.324;2023-07-09T10:36:48;19.37;;;14.45;;
22435;SDS011;11385;50.822;4.324;2023-07-09T10:39:32;17.07;;;13.75;;
22435;SDS011;11385;50.822;4.324;2023-07-09T10:42:04;17.37;;;11.78;;
22435;SDS011;11385;50.822;4.324;2023-07-09T10:44:36;18.95;;;15.05;;
22435;SDS011;11385;50.822;4.324;2023-07-09T10:49:41;20.05;;;16.17;;
22435;SDS011;11385;50.822;4.324;2023-07-09T10:54:59;22.17;;;16.25;;
22435;SDS011;11385;50.822;4.324;2023-07-09T10:57:29;21.68;;;14.78;;
22435;SDS011;11385;50.822;4.324;2023-07-09T10:59:58;20.10;;;14.70;;
22435;SDS011;11385;50.822;4.324;2023-07-09T11:02:28;19.25;;;12.73;;
22435;SDS011;11385;50.822;4.324;2023-07-09T11:05:00;17.42;;;10.50;;
22435;SDS011;11385;50.822;4.324;2023-07-09T11:07:54;15.90;;;10.45;;
22435;SDS011;11385;50.822;4.324;2023-07-09T11:10:25;13.50;;;9.08;;
22435;SDS011;11385;50.822;4.324;2023-07-09T11:13:00;11.10;;;7.33;;
22435;SDS011;11385;50.822;4.324;2023-07-09T11:15:46;10.28;;;7.33;;
22435;SDS011;11385;50.822;4.324;2023-07-09T11:18:20;11.88;;;6.28;;
22435;SDS011;11385;50.822;4.324;2023-07-09T11:20:55;10.90;;;6.72;;
22435;SDS011;11385;50.822;4.324;2023-07-09T11:23:23;7.85;;;5.85;;
22435;SDS011;11385;50.822;4.324;2023-07-09T11:28:33;10.60;;;5.90;;
22435;SDS011;11385;50.822;4.324;2023-07-09T11:31:07;8.55;;;5.17;;
22435;SDS011;11385;50.822;4.324;2023-07-09T11:33:44;8.03;;;5.40;;
22435;SDS011;11385;50.822;4.324;2023-07-09T11:36:07;9.58;;;5.67;;
22435;SDS011;11385;50.822;4.324;2023-07-09T11:38:39;10.58;;;5.65;;
22435;SDS011;11385;50.822;4.324;2023-07-09T11:43:47;7.92;;;4.85;;
22435;SDS011;11385;50.822;4.324;2023-07-09T11:46:17;9.15;;;5.42;;
22435;SDS011;11385;50.822;4.324;2023-07-09T11:48:45;9.28;;;5.15;;
22435;SDS011;11385;50.822;4.324;2023-07-09T11:51:17;7.25;;;4.78;;
22435;SDS011;11385;50.822;4.324;2023-07-09T11:53:47;8.68;;;4.47;;
22435;SDS011;11385;50.822;4.324;2023-07-09T11:56:18;6.83;;;4.85;;
22435;SDS011;11385;50.822;4.324;2023-07-09T11:58:48;9.33;;;5.05;;
22435;SDS011;11385;50.822;4.324;2023-07-09T12:01:22;8.93;;;4.65;;
22435;SDS011;11385;50.822;4.324;2023-07-09T12:03:52;11.28;;;5.40;;
22435;SDS011;11385;50.822;4.324;2023-07-09T12:06:26;7.35;;;5.10;;
22435;SDS011;11385;50.822;4.324;2023-07-09T12:08:54;10.70;;;4.80;;
22435;SDS011;11385;50.822;4.324;2023-07-09T12:11:23;11.60;;;4.70;;
22435;SDS011;11385;50.822;4.324;2023-07-09T12:13:53;10.43;;;4.70;;
22435;SDS011;11385;50.822;4.324;2023-07-09T12:16:24;11.55;;;5.03;;
22435;SDS011;11385;50.822;4.324;2023-07-09T12:18:54;12.13;;;5.85;;
22435;SDS011;11385;50.822;4.324;2023-07-09T12:21:21;11.90;;;6.10;;
22435;SDS011;11385;50.822;4.324;2023-07-09T12:23:50;10.82;;;6.22;;
22435;SDS011;11385;50.822;4.324;2023-07-09T12:26:17;13.05;;;6.70;;
22435;SDS011;11385;50.822;4.324;2023-07-09T12:31:20;15.90;;;8.38;;
22435;SDS011;11385;50.822;4.324;2023-07-09T12:33:52;12.63;;;8.18;;
22435;SDS011;11385;50.822;4.324;2023-07-09T12:36:20;14.40;;;7.55;;
22435;SDS011;11385;50.822;4.324;2023-07-09T12:38:49;16.07;;;9.63;;
22435;SDS011;11385;50.822;4.324;2023-07-09T12:41:22;15.10;;;10.08;;
22435;SDS011;11385;50.822;4.324;2023-07-09T12:43:51;19.32;;;10.68;;
22435;SDS011;11385;50.822;4.324;2023-07-09T12:46:20;20.15;;;11.15;;
22435;SDS011;11385;50.822;4.324;2023-07-09T12:48:48;16.35;;;9.85;;
22435;SDS011;11385;50.822;4.324;2023-07-09T12:51:21;15.08;;;9.08;;
22435;SDS011;11385;50.822;4.324;2023-07-09T12:56:32;12.37;;;9.33;;
22435;SDS011;11385;50.822;4.324;2023-07-09T12:59:01;15.68;;;9.30;;
22435;SDS011;11385;50.822;4.324;2023-07-09T13:01:32;17.98;;;10.65;;
22435;SDS011;11385;50.822;4.324;2023-07-09T13:04:01;14.15;;;9.45;;
22435;SDS011;11385;50.822;4.324;2023-07-09T13:06:30;15.63;;;9.93;;
22435;SDS011;11385;50.822;4.324;2023-07-09T13:09:03;15.70;;;10.63;;
22435;SDS011;11385;50.822;4.324;2023-07-09T13:11:35;14.28;;;9.50;;
22435;SDS011;11385;50.822;4.324;2023-07-09T13:14:04;17.87;;;9.88;;
22435;SDS011;11385;50.822;4.324;2023-07-09T13:16:38;16.17;;;9.95;;
22435;SDS011;11385;50.822;4.324;2023-07-09T13:19:06;14.60;;;9.38;;
22435;SDS011;11385;50.822;4.324;2023-07-09T13:21:32;13.32;;;9.28;;
22435;SDS011;11385;50.822;4.324;2023-07-09T13:23:59;14.63;;;8.40;;
22435;SDS011;11385;50.822;4.324;2023-07-09T13:26:26;14.68;;;8.88;;
22435;SDS011;11385;50.822;4.324;2023-07-09T13:28:53;14.18;;;8.70;;
22435;SDS011;11385;50.822;4.324;2023-07-09T13:31:20;14.93;;;9.73;;
22435;SDS011;11385;50.822;4.324;2023-07-09T13:33:50;13.08;;;8.75;;
22435;SDS011;11385;50.822;4.324;2023-07-09T13:36:21;15.58;;;8.15;;
22435;SDS011;11385;50.822;4.324;2023-07-09T13:38:48;14.93;;;8.90;;
22435;SDS011;11385;50.822;4.324;2023-07-09T13:41:16;12.50;;;7.00;;
22435;SDS011;11385;50.822;4.324;2023-07-09T13:43:47;10.58;;;7.42;;
22435;SDS011;11385;50.822;4.324;2023-07-09T13:46:14;14.85;;;7.80;;
22435;SDS011;11385;50.822;4.324;2023-07-09T13:48:42;12.15;;;7.33;;
22435;SDS011;11385;50.822;4.324;2023-07-09T13:51:13;13.65;;;8.03;;
22435;SDS011;11385;50.822;4.324;2023-07-09T13:53:42;11.15;;;7.50;;
22435;SDS011;11385;50.822;4.324;2023-07-09T13:56:09;10.30;;;6.70;;
22435;SDS011;11385;50.822;4.324;2023-07-09T13:58:35;11.08;;;7.45;;
22435;SDS011;11385;50.822;4.324;2023-07-09T14:01:13;11.30;;;7.12;;
22435;SDS011;11385;50.822;4.324;2023-07-09T14:03:42;8.25;;;6.17;;
22435;SDS011;11385;50.822;4.324;2023-07-09T14:06:11;10.10;;;7.47;;
22435;SDS011;11385;50.822;4.324;2023-07-09T14:08:38;10.13;;;7.50;;
22435;SDS011;11385;50.822;4.324;2023-07-09T14:11:09;9.55;;;6.72;;
22435;SDS011;11385;50.822;4.324;2023-07-09T14:13:38;12.20;;;6.72;;
22435;SDS011;11385;50.822;4.324;2023-07-09T14:16:05;11.43;;;6.67;;
22435;SDS011;11385;50.822;4.324;2023-07-09T14:18:35;11.43;;;6.58;;
22435;SDS011;11385;50.822;4.324;2023-07-09T14:21:05;12.45;;;6.08;;
22435;SDS011;11385;50.822;4.324;2023-07-09T14:23:37;8.78;;;5.00;;
22435;SDS011;11385;50.822;4.324;2023-07-09T14:26:04;11.30;;;5.37;;
22435;SDS011;11385;50.822;4.324;2023-07-09T14:28:30;10.72;;;5.62;;
22435;SDS011;11385;50.822;4.324;2023-07-09T14:30:57;8.50;;;5.92;;
22435;SDS011;11385;50.822;4.324;2023-07-09T14:33:23;8.55;;;5.95;;
22435;SDS011;11385;50.822;4.324;2023-07-09T14:35:50;11.97;;;5.90;;
22435;SDS011;11385;50.822;4.324;2023-07-09T14:38:19;9.15;;;5.95;;
22435;SDS011;11385;50.822;4.324;2023-07-09T14:40:49;9.78;;;5.15;;
22435;SDS011;11385;50.822;4.324;2023-07-09T14:43:18;10.60;;;6.05;;
22435;SDS011;11385;50.822;4.324;2023-07-09T14:45:46;9.10;;;5.17;;
22435;SDS011;11385;50.822;4.324;2023-07-09T14:48:16;7.25;;;4.87;;
22435;SDS011;11385;50.822;4.324;2023-07-09T14:50:44;9.50;;;5.65;;
22435;SDS011;11385;50.822;4.324;2023-07-09T14:53:13;8.43;;;5.17;;
22435;SDS011;11385;50.822;4.324;2023-07-09T14:55:42;11.50;;;5.53;;
22435;SDS011;11385;50.822;4.324;2023-07-09T14:58:14;11.05;;;6.17;;
22435;SDS011;11385;50.822;4.324;2023-07-09T15:00:42;9.80;;;5.47;;
22435;SDS011;11385;50.822;4.324;2023-07-09T15:03:14;9.58;;;5.55;;
22435;SDS011;11385;50.822;4.324;2023-07-09T15:05:43;12.23;;;5.85;;
22435;SDS011;11385;50.822;4.324;2023-07-09T15:08:13;9.88;;;5.50;;
22435;SDS011;11385;50.822;4.324;2023-07-09T15:15:47;9.20;;;4.72;;
22435;SDS011;11385;50.822;4.324;2023-07-09T15:18:15;9.15;;;4.80;;